LSZH

Zurich Airport

Code ICAO LSZH
Code IATA ZRH
Nom Zurich Airport
Emplacement Zurich, Zurich, CH
Élévation 1416 pieds / 431.6 mètres
Latitude 47.46469879
Longitude 8.54916954
METAR LSZH 210850Z VRB02KT 9999 FEW028 23/16 Q1010 NOSIG
Informations extras Afficher cartes et CFS
Afficher NOTAMS
Piste Longueur Largeur Surface Élévation
10 8202 ft 197 ft CON 1391 ft
14 10827 ft 197 ft CON 1402 ft
16 12139 ft 197 ft CON 1390 ft
28 8202 ft 197 ft CON 1416 ft
32 10827 ft 197 ft CON 1402 ft
34 12139 ft 197 ft CON 1388 ft